Colombo Express — DIHC — position and weather

sailwx.info

Track history (hours):
 
Tides and Currents Weather Stations Pressure Air Temp Water Temp Dewpoint Dewpoint Depression Visibility Wind Speed Wind Dir Waves Ship Positions

Colombo Express

Last reported at 2017-Jun-25 15:30 UTC. Time now 2017-Jun-25 15:49 UTC.
Position N 51°57' E 004°03'.

Length 335.5 m; beam 42.8 m; draft 14.6 m.

Type: Ship. MMSI: 211433000.

Date/timePositionNaut miles runAvg speedWind from/ knotsBaromVisibWave heightAir tempDewpointWater temp
2017-Jun-25 15:30N 51°57' E 004°03'0 0.0
2017-Jun-25 14:59N 51°57' E 004°03'0 0.0
2017-Jun-25 14:30N 51°57' E 004°03'0 0.0
2017-Jun-25 13:30N 51°57' E 004°03'1 1.2
2017-Jun-25 13:00N 51°57' E 004°04'2 4.2
2017-Jun-25 12:30N 51°59' E 004°04'611.1
2017-Jun-25 12:00N 52°00' E 003°56'5 9.8
2017-Jun-25 11:31N 52°00' E 003°48'510.5
2017-Jun-25 11:00N 51°58' E 003°40'510.9
2017-Jun-25 10:30N 51°57' E 003°31'5 9.2
2017-Jun-25 10:00N 51°55' E 003°24'38 9.2
2017-Jun-25 05:50N 51°40' E 002°27'411.3
2017-Jun-25 05:31N 51°37' E 002°23'611.4
2017-Jun-25 05:00N 51°33' E 002°17'611.5
2017-Jun-25 04:31N 51°29' E 002°10'612.1
2017-Jun-25 04:01N 51°25' E 002°04'612.1
2017-Jun-25 03:30N 51°20' E 001°57'611.3
2017-Jun-25 03:00N 51°16' E 001°52'713.5
2017-Jun-25 02:31N 51°10' E 001°45'918.0
2017-Jun-25 02:01N 51°03' E 001°36'1020.5
2017-Jun-25 01:31N 50°55' E 001°28'1020.2
2017-Jun-25 01:01N 50°45' E 001°22'5518.2
2017-Jun-24 22:00N 50°21' E 000°05'1020.1
2017-Jun-24 21:30N 50°19' W 000°10'1020.6
2017-Jun-24 21:00N 50°16' W 000°26'1121.1
2017-Jun-24 20:28N 50°13' W 000°42'6620.8
2017-Jun-24 17:18N 49°56' W 002°21'618.7
2017-Jun-24 17:00N 49°54' W 002°30'918.3
2017-Jun-24 16:30N 49°52' W 002°43'917.9
2017-Jun-24 16:00N 49°49' W 002°56'917.7
2017-Jun-24 15:30N 49°44' W 003°08'917.0
2017-Jun-24 15:00N 49°40' W 003°19'8316.4
2017-Jun-24 09:57N 48°58' W 005°09'715.7
2017-Jun-24 09:29N 48°55' W 005°19'816.0
2017-Jun-24 09:00N 48°51' W 005°29'3816.1
2017-Jun-24 06:38N 48°18' W 005°57'1717.0
2017-Jun-24 05:38N 48°03' W 006°10'2517.7
2017-Jun-24 04:14N 47°41' W 006°26'417.7
2017-Jun-24 03:59N 47°37' W 006°29'51217.5
2017-Jun-22 22:45N 39°26' W 009°51'517.9
2017-Jun-22 22:30N 39°21' W 009°51'918.0
2017-Jun-22 22:00N 39°12' W 009°51'917.7
2017-Jun-22 21:30N 39°04' W 009°51'917.8
2017-Jun-22 21:00N 38°55' W 009°51'918.0
2017-Jun-22 20:30N 38°46' W 009°52'917.6
2017-Jun-22 20:01N 38°37' W 009°50'917.4
2017-Jun-22 19:31N 38°29' W 009°47'917.6
2017-Jun-22 19:00N 38°20' W 009°45'816.9
2017-Jun-22 18:31N 38°12' W 009°42'816.7
2017-Jun-22 18:01N 38°04' W 009°39'816.8
2017-Jun-22 17:31N 37°56' W 009°37'816.6
2017-Jun-22 17:01N 37°47' W 009°35'816.5
2017-Jun-22 16:31N 37°39' W 009°33'816.9
2017-Jun-22 16:01N 37°31' W 009°30'917.2
2017-Jun-22 15:31N 37°23' W 009°28'1017.6
2017-Jun-22 14:55N 37°13' W 009°25'717.8
2017-Jun-22 14:31N 37°06' W 009°23'1816.9
2017-Jun-22 13:28N 36°49' W 009°15'1017.1
2017-Jun-22 12:51N 36°43' W 009°04'617.6
2017-Jun-22 12:31N 36°41' W 008°57'1017.1
2017-Jun-22 11:54N 36°38' W 008°45'717.4
2017-Jun-22 11:30N 36°35' W 008°36'917.6
2017-Jun-22 11:01N 36°33' W 008°26'917.5
2017-Jun-22 10:30N 36°29' W 008°16'917.4
2017-Jun-22 10:01N 36°27' W 008°06'917.5
2017-Jun-22 09:31N 36°24' W 007°55'917.3
2017-Jun-22 09:01N 36°21' W 007°45'917.5
2017-Jun-22 08:31N 36°18' W 007°35'917.6
2017-Jun-22 08:01N 36°16' W 007°25'917.2
2017-Jun-22 07:30N 36°13' W 007°14'917.4
2017-Jun-22 07:00N 36°10' W 007°04'918.1
2017-Jun-22 06:30N 36°08' W 006°53'918.8
2017-Jun-22 06:00N 36°05' W 006°42'1418.3
2017-Jun-22 05:14N 36°00' W 006°26'417.3
2017-Jun-22 05:01N 35°59' W 006°21'816.9
2017-Jun-22 04:31N 35°57' W 006°11'2116.0
2017-Jun-22 03:11N 35°57' W 005°45'314.8
2017-Jun-22 03:00N 35°57' W 005°41'714.7
2017-Jun-22 02:31N 35°58' W 005°33'815.7
2017-Jun-22 02:01N 36°00' W 005°24'816.4
2017-Jun-22 01:31N 36°02' W 005°14'20617.4
2017-Jun-21 13:39N 36°26' W 001°00'718.2
2017-Jun-21 13:16N 36°27' W 000°51'518.0
2017-Jun-21 13:00N 36°28' W 000°46'917.8
2017-Jun-21 12:29N 36°30' W 000°34'816.9
2017-Jun-21 12:00N 36°30' W 000°24'324.0 050 / 81017.0 5.4 27.320.623.0
2017-Jun-21 11:53N 36°32' W 000°21'818.1
2017-Jun-21 11:26N 36°33' W 000°11'818.0
2017-Jun-21 10:59N 36°34' W 000°01'918.1
2017-Jun-21 10:30N 36°36' E 000°09'917.9
2017-Jun-21 10:00N 36°38' E 000°20'917.9
2017-Jun-21 09:30N 36°39' E 000°31'917.6
2017-Jun-21 09:00N 36°42' E 000°42'917.6
2017-Jun-21 08:30N 36°44' E 000°52'1117.6
2017-Jun-21 07:51N 36°45' E 001°07'617.8
2017-Jun-21 07:30N 36°45' E 001°14'918.0
2017-Jun-21 07:00N 36°47' E 001°25'918.2
2017-Jun-21 06:30N 36°49' E 001°37'917.9
2017-Jun-21 06:00N 36°50' E 001°48'917.8
2017-Jun-21 05:30N 36°52' E 001°59'917.8
2017-Jun-21 05:00N 36°53' E 002°10'917.7
2017-Jun-21 04:29N 36°55' E 002°21'1117.7
2017-Jun-21 03:51N 36°57' E 002°35'617.7
2017-Jun-21 03:30N 36°58' E 002°42'917.5
2017-Jun-21 03:00N 36°59' E 002°53'917.5
2017-Jun-21 02:30N 37°01' E 003°04'1817.5
2017-Jun-21 01:29N 37°04' E 003°26'917.4
2017-Jun-21 00:59N 37°06' E 003°37'817.2
2017-Jun-21 00:30N 37°07' E 003°47'917.2
2017-Jun-21 00:00N 37°09' E 003°57'4529.6
2017-Jun-21 00:00N 37°06' E 003°54'1224.3 080 / 61016.0 5.4 23.218.721.0
2017-Jun-20 23:30N 37°10' E 004°08'917.2
2017-Jun-20 23:00N 37°11' E 004°19'917.3
2017-Jun-20 22:30N 37°12' E 004°30'917.6
2017-Jun-20 22:00N 37°13' E 004°40'917.7
2017-Jun-20 21:30N 37°14' E 004°51'917.7
2017-Jun-20 21:00N 37°15' E 005°03'917.6
2017-Jun-20 20:30N 37°16' E 005°14'917.6
2017-Jun-20 20:01N 37°17' E 005°24'917.5
2017-Jun-20 19:30N 37°18' E 005°35'917.4
2017-Jun-20 19:00N 37°19' E 005°46'917.5
2017-Jun-20 18:30N 37°20' E 005°57'917.7
2017-Jun-20 17:59N 37°21' E 006°09'2817.5
2017-Jun-20 16:22N 37°24' E 006°44'817.3
2017-Jun-20 15:56N 37°25' E 006°53'2017.4
2017-Jun-20 14:47N 37°27' E 007°18'717.6
2017-Jun-20 14:22N 37°28' E 007°28'4217.7
2017-Jun-20 12:01N 37°33' E 008°20'718.2
2017-Jun-20 11:38N 37°34' E 008°29'17117.3
2017-Jun-20 01:46N 37°05' E 011°60'1017.7
2017-Jun-20 01:12N 37°01' E 012°12'517.6
2017-Jun-20 00:55N 36°59' E 012°17'717.7
2017-Jun-20 00:30N 36°58' E 012°26'917.9
2017-Jun-20 00:00N 36°56' E 012°37'917.8
2017-Jun-19 23:30N 36°53' E 012°48'917.8
2017-Jun-19 23:00N 36°51' E 012°59'917.8
2017-Jun-19 22:30N 36°49' E 013°09'917.8
2017-Jun-19 22:00N 36°45' E 013°20'917.6
2017-Jun-19 21:31N 36°42' E 013°29'917.4
2017-Jun-19 21:00N 36°39' E 013°40'817.1
2017-Jun-19 20:30N 36°36' E 013°50'917.0
2017-Jun-19 20:00N 36°33' E 013°60'917.1
2017-Jun-19 19:30N 36°31' E 014°10'817.0
2017-Jun-19 19:00N 36°29' E 014°20'816.7
2017-Jun-19 18:31N 36°26' E 014°30'816.8
2017-Jun-19 18:00N 36°23' E 014°40'816.8
2017-Jun-19 17:30N 36°20' E 014°50'816.7
2017-Jun-19 17:00N 36°18' E 014°60'8817.6
2017-Jun-19 12:00N 35°48' E 016°42'80317.9 010 / 251017.3 5.4 24.315.823.0
2017-Jun-17 15:07N 31°43' E 032°02'218.0
2017-Jun-17 14:59N 31°41' E 032°04'1017.7
2017-Jun-17 14:24N 31°33' E 032°12'1516.0
2017-Jun-17 13:29N 31°22' E 032°23'815.9
2017-Jun-17 13:00N 31°14' E 032°21'4 8.1
2017-Jun-17 12:30N 31°11' E 032°20'5 8.7
2017-Jun-17 11:59N 31°06' E 032°19'4 9.3
2017-Jun-17 11:30N 31°02' E 032°19'5 9.3
2017-Jun-17 11:00N 30°57' E 032°19'5 9.3
2017-Jun-17 10:30N 30°52' E 032°19'337 8.3
2017-Jun-15 18:00N 25°54' E 035°18'   340 / 61006.910.8 27.522.226.0
Track history (hours):
 
Tides and Currents Weather Stations Pressure Air Temp Water Temp Dewpoint Dewpoint Depression Visibility Wind Speed Wind Dir Waves Ship Positions

Colombo Express

Last reported at 2017-Jun-25 15:30 UTC. Time now 2017-Jun-25 15:49 UTC.
Position N 51°57' E 004°03'.

Length 335.5 m; beam 42.8 m; draft 14.6 m.

Type: Ship. MMSI: 211433000.

Date/timePositionNaut miles runAvg speedWind from/ knotsBaromVisibWave heightAir tempDewpointWater temp
2017-Jun-25 15:30N 51°57' E 004°03'0 0.0
2017-Jun-25 14:59N 51°57' E 004°03'0 0.0
2017-Jun-25 14:30N 51°57' E 004°03'0 0.0
2017-Jun-25 13:30N 51°57' E 004°03'1 1.2
2017-Jun-25 13:00N 51°57' E 004°04'2 4.2
2017-Jun-25 12:30N 51°59' E 004°04'611.1
2017-Jun-25 12:00N 52°00' E 003°56'5 9.8
2017-Jun-25 11:31N 52°00' E 003°48'510.5
2017-Jun-25 11:00N 51°58' E 003°40'510.9
2017-Jun-25 10:30N 51°57' E 003°31'5 9.2
2017-Jun-25 10:00N 51°55' E 003°24'38 9.2
2017-Jun-25 05:50N 51°40' E 002°27'411.3
2017-Jun-25 05:31N 51°37' E 002°23'611.4
2017-Jun-25 05:00N 51°33' E 002°17'611.5
2017-Jun-25 04:31N 51°29' E 002°10'612.1
2017-Jun-25 04:01N 51°25' E 002°04'612.1
2017-Jun-25 03:30N 51°20' E 001°57'611.3
2017-Jun-25 03:00N 51°16' E 001°52'713.5
2017-Jun-25 02:31N 51°10' E 001°45'918.0
2017-Jun-25 02:01N 51°03' E 001°36'1020.5
2017-Jun-25 01:31N 50°55' E 001°28'1020.2
2017-Jun-25 01:01N 50°45' E 001°22'5518.2
2017-Jun-24 22:00N 50°21' E 000°05'1020.1
2017-Jun-24 21:30N 50°19' W 000°10'1020.6
2017-Jun-24 21:00N 50°16' W 000°26'1121.1
2017-Jun-24 20:28N 50°13' W 000°42'6620.8
2017-Jun-24 17:18N 49°56' W 002°21'618.7
2017-Jun-24 17:00N 49°54' W 002°30'918.3
2017-Jun-24 16:30N 49°52' W 002°43'917.9
2017-Jun-24 16:00N 49°49' W 002°56'917.7
2017-Jun-24 15:30N 49°44' W 003°08'917.0
2017-Jun-24 15:00N 49°40' W 003°19'8316.4
2017-Jun-24 09:57N 48°58' W 005°09'715.7
2017-Jun-24 09:29N 48°55' W 005°19'816.0
2017-Jun-24 09:00N 48°51' W 005°29'3816.1
2017-Jun-24 06:38N 48°18' W 005°57'1717.0
2017-Jun-24 05:38N 48°03' W 006°10'2517.7
2017-Jun-24 04:14N 47°41' W 006°26'417.7
2017-Jun-24 03:59N 47°37' W 006°29'51217.5
2017-Jun-22 22:45N 39°26' W 009°51'517.9
2017-Jun-22 22:30N 39°21' W 009°51'918.0
2017-Jun-22 22:00N 39°12' W 009°51'917.7
2017-Jun-22 21:30N 39°04' W 009°51'917.8
2017-Jun-22 21:00N 38°55' W 009°51'918.0
2017-Jun-22 20:30N 38°46' W 009°52'917.6
2017-Jun-22 20:01N 38°37' W 009°50'917.4
2017-Jun-22 19:31N 38°29' W 009°47'917.6
2017-Jun-22 19:00N 38°20' W 009°45'816.9
2017-Jun-22 18:31N 38°12' W 009°42'816.7
2017-Jun-22 18:01N 38°04' W 009°39'816.8
2017-Jun-22 17:31N 37°56' W 009°37'816.6
2017-Jun-22 17:01N 37°47' W 009°35'816.5
2017-Jun-22 16:31N 37°39' W 009°33'816.9
2017-Jun-22 16:01N 37°31' W 009°30'917.2
2017-Jun-22 15:31N 37°23' W 009°28'1017.6
2017-Jun-22 14:55N 37°13' W 009°25'717.8
2017-Jun-22 14:31N 37°06' W 009°23'1816.9
2017-Jun-22 13:28N 36°49' W 009°15'1017.1
2017-Jun-22 12:51N 36°43' W 009°04'617.6
2017-Jun-22 12:31N 36°41' W 008°57'1017.1
2017-Jun-22 11:54N 36°38' W 008°45'717.4
2017-Jun-22 11:30N 36°35' W 008°36'917.6
2017-Jun-22 11:01N 36°33' W 008°26'917.5
2017-Jun-22 10:30N 36°29' W 008°16'917.4
2017-Jun-22 10:01N 36°27' W 008°06'917.5
2017-Jun-22 09:31N 36°24' W 007°55'917.3
2017-Jun-22 09:01N 36°21' W 007°45'917.5
2017-Jun-22 08:31N 36°18' W 007°35'917.6
2017-Jun-22 08:01N 36°16' W 007°25'917.2
2017-Jun-22 07:30N 36°13' W 007°14'917.4
2017-Jun-22 07:00N 36°10' W 007°04'918.1
2017-Jun-22 06:30N 36°08' W 006°53'918.8
2017-Jun-22 06:00N 36°05' W 006°42'1418.3
2017-Jun-22 05:14N 36°00' W 006°26'417.3
2017-Jun-22 05:01N 35°59' W 006°21'816.9
2017-Jun-22 04:31N 35°57' W 006°11'2116.0
2017-Jun-22 03:11N 35°57' W 005°45'314.8
2017-Jun-22 03:00N 35°57' W 005°41'714.7
2017-Jun-22 02:31N 35°58' W 005°33'815.7
2017-Jun-22 02:01N 36°00' W 005°24'816.4
2017-Jun-22 01:31N 36°02' W 005°14'20617.4
2017-Jun-21 13:39N 36°26' W 001°00'718.2
2017-Jun-21 13:16N 36°27' W 000°51'518.0
2017-Jun-21 13:00N 36°28' W 000°46'917.8
2017-Jun-21 12:29N 36°30' W 000°34'816.9
2017-Jun-21 12:00N 36°30' W 000°24'324.0 050 / 81017.0 5.4 27.320.623.0
2017-Jun-21 11:53N 36°32' W 000°21'818.1
2017-Jun-21 11:26N 36°33' W 000°11'818.0
2017-Jun-21 10:59N 36°34' W 000°01'918.1
2017-Jun-21 10:30N 36°36' E 000°09'917.9
2017-Jun-21 10:00N 36°38' E 000°20'917.9
2017-Jun-21 09:30N 36°39' E 000°31'917.6
2017-Jun-21 09:00N 36°42' E 000°42'917.6
2017-Jun-21 08:30N 36°44' E 000°52'1117.6
2017-Jun-21 07:51N 36°45' E 001°07'617.8
2017-Jun-21 07:30N 36°45' E 001°14'918.0
2017-Jun-21 07:00N 36°47' E 001°25'918.2
2017-Jun-21 06:30N 36°49' E 001°37'917.9
2017-Jun-21 06:00N 36°50' E 001°48'917.8
2017-Jun-21 05:30N 36°52' E 001°59'917.8
2017-Jun-21 05:00N 36°53' E 002°10'917.7
2017-Jun-21 04:29N 36°55' E 002°21'1117.7
2017-Jun-21 03:51N 36°57' E 002°35'617.7
2017-Jun-21 03:30N 36°58' E 002°42'917.5
2017-Jun-21 03:00N 36°59' E 002°53'917.5
2017-Jun-21 02:30N 37°01' E 003°04'1817.5
2017-Jun-21 01:29N 37°04' E 003°26'917.4
2017-Jun-21 00:59N 37°06' E 003°37'817.2
2017-Jun-21 00:30N 37°07' E 003°47'917.2
2017-Jun-21 00:00N 37°09' E 003°57'4529.6
2017-Jun-21 00:00N 37°06' E 003°54'1224.3 080 / 61016.0 5.4 23.218.721.0
2017-Jun-20 23:30N 37°10' E 004°08'917.2
2017-Jun-20 23:00N 37°11' E 004°19'917.3
2017-Jun-20 22:30N 37°12' E 004°30'917.6
2017-Jun-20 22:00N 37°13' E 004°40'917.7
2017-Jun-20 21:30N 37°14' E 004°51'917.7
2017-Jun-20 21:00N 37°15' E 005°03'917.6
2017-Jun-20 20:30N 37°16' E 005°14'917.6
2017-Jun-20 20:01N 37°17' E 005°24'917.5
2017-Jun-20 19:30N 37°18' E 005°35'917.4
2017-Jun-20 19:00N 37°19' E 005°46'917.5
2017-Jun-20 18:30N 37°20' E 005°57'917.7
2017-Jun-20 17:59N 37°21' E 006°09'2817.5
2017-Jun-20 16:22N 37°24' E 006°44'817.3
2017-Jun-20 15:56N 37°25' E 006°53'2017.4
2017-Jun-20 14:47N 37°27' E 007°18'717.6
2017-Jun-20 14:22N 37°28' E 007°28'4217.7
2017-Jun-20 12:01N 37°33' E 008°20'718.2
2017-Jun-20 11:38N 37°34' E 008°29'17117.3
2017-Jun-20 01:46N 37°05' E 011°60'1017.7
2017-Jun-20 01:12N 37°01' E 012°12'517.6
2017-Jun-20 00:55N 36°59' E 012°17'717.7
2017-Jun-20 00:30N 36°58' E 012°26'917.9
2017-Jun-20 00:00N 36°56' E 012°37'917.8
2017-Jun-19 23:30N 36°53' E 012°48'917.8
2017-Jun-19 23:00N 36°51' E 012°59'917.8
2017-Jun-19 22:30N 36°49' E 013°09'917.8
2017-Jun-19 22:00N 36°45' E 013°20'917.6
2017-Jun-19 21:31N 36°42' E 013°29'917.4
2017-Jun-19 21:00N 36°39' E 013°40'817.1
2017-Jun-19 20:30N 36°36' E 013°50'917.0
2017-Jun-19 20:00N 36°33' E 013°60'917.1
2017-Jun-19 19:30N 36°31' E 014°10'817.0
2017-Jun-19 19:00N 36°29' E 014°20'816.7
2017-Jun-19 18:31N 36°26' E 014°30'816.8
2017-Jun-19 18:00N 36°23' E 014°40'816.8
2017-Jun-19 17:30N 36°20' E 014°50'816.7
2017-Jun-19 17:00N 36°18' E 014°60'8817.6
2017-Jun-19 12:00N 35°48' E 016°42'80317.9 010 / 251017.3 5.4 24.315.823.0
2017-Jun-17 15:07N 31°43' E 032°02'218.0
2017-Jun-17 14:59N 31°41' E 032°04'1017.7
2017-Jun-17 14:24N 31°33' E 032°12'1516.0
2017-Jun-17 13:29N 31°22' E 032°23'815.9
2017-Jun-17 13:00N 31°14' E 032°21'4 8.1
2017-Jun-17 12:30N 31°11' E 032°20'5 8.7
2017-Jun-17 11:59N 31°06' E 032°19'4 9.3
2017-Jun-17 11:30N 31°02' E 032°19'5 9.3
2017-Jun-17 11:00N 30°57' E 032°19'5 9.3
2017-Jun-17 10:30N 30°52' E 032°19'337 8.3
2017-Jun-15 18:00N 25°54' E 035°18'   340 / 61006.910.8 27.522.226.0

Dump ship's entire track history